Time;durP1;ratioP1;P1;durP2;ratioP2;P2;SDS_P1;SDS_P2;PMS_P1;PMS_P2;Temp;Humidity;BMP_temperature;BMP_pressure;BME280_temperature;BME280_humidity;BME280_pressure;Samples;Min_cycle;Max_cycle;Signal;HPM_P1;HPM_P2
2022/10/01 00:00:49;;;;;;;;;;;;;;;10.83;100.00;98718.58;104936;1273;69903;-73
2022/10/01 00:03:35;;;;;;;;;;;;;;;10.82;100.00;98720.23;104932;1272;75339;-73
2022/10/01 00:06:08;;;;;;;;;;;;;;;10.83;100.00;98714.35;104903;1272;61367;-73
2022/10/01 00:08:36;;;;;;;;;;;;;;;10.82;100.00;98704.27;104944;1273;61597;-73
2022/10/01 00:11:10;;;;;;;;;;;;;;;10.82;100.00;98701.76;104901;1272;75192;-74
2022/10/01 00:13:38;;;;;;;;;;;;;;;10.82;100.00;98707.45;105028;1272;69976;-73
2022/10/01 00:16:06;;;;;;;;;;;;;;;10.83;100.00;98709.70;104986;1273;73923;-73
2022/10/01 00:18:36;;;;;;;;;;;;;;;10.83;100.00;98706.30;104977;1273;61375;-73
2022/10/01 00:21:11;;;;;;;;;;;;;;;10.83;100.00;98707.56;104963;1272;61615;-72
2022/10/01 00:23:38;;;;;;;;;;;;;;;10.83;100.00;98706.13;104941;1273;75375;-72
2022/10/01 00:26:18;;;;;;;;;;;;;;;10.82;100.00;98705.48;105005;1273;70084;-73
2022/10/01 00:28:45;;;;;;;;;;;;;;;10.80;100.00;98701.90;104936;1272;73553;-74
2022/10/01 00:31:13;;;;;;;;;;;;;;;10.79;100.00;98709.06;104928;1272;61328;-75
2022/10/01 00:33:39;;;;;;;;;;;;;;;10.78;100.00;98715.70;104969;1273;61660;-73
2022/10/01 00:36:06;;;;;;;;;;;;;;;10.78;100.00;98717.88;104895;1271;61223;-74
2022/10/01 00:38:33;;;;;;;;;;;;;;;10.76;100.00;98720.63;104942;1273;69313;-74
2022/10/01 00:41:00;;;;;;;;;;;;;;;10.75;100.00;98715.36;104929;1273;74285;-75
2022/10/01 00:43:31;;;;;;;;;;;;;;;10.74;100.00;98711.04;104915;1273;61454;-72
2022/10/01 00:46:01;;;;;;;;;;;;;;;10.72;100.00;98714.00;104941;1272;61749;-73
2022/10/01 00:48:29;;;;;;;;;;;;;;;10.70;100.00;98710.98;104927;1273;74889;-74
2022/10/01 00:50:57;;;;;;;;;;;;;;;10.66;100.00;98713.21;104958;1273;69199;-74
2022/10/01 00:53:23;;;;;;;;;;;;;;;10.62;100.00;98716.52;104922;1273;73165;-74
2022/10/01 00:55:55;;;;;;;;;;;;;;;10.57;100.00;98722.03;104922;1272;61275;-74
2022/10/01 00:58:24;;;;;;;;;;;;;;;10.51;100.00;98723.88;104993;1273;61283;-74
2022/10/01 01:00:52;;;;;;;;;;;;;;;10.46;100.00;98719.94;104915;1272;76323;-73
2022/10/01 01:03:19;;;;;;;;;;;;;;;10.42;100.00;98715.42;104986;1273;69194;-73
2022/10/01 01:05:46;;;;;;;;;;;;;;;10.39;100.00;98713.02;104892;1272;61177;-74
2022/10/01 01:08:14;;;;;;;;;;;;;;;10.34;100.00;98713.02;104904;1273;61291;-73
2022/10/01 01:10:51;;;;;;;;;;;;;;;10.31;100.00;98708.44;104941;1273;61351;-73
2022/10/01 01:13:39;;;;;;;;;;;;;;;10.27;100.00;98711.49;104960;1273;75199;-74
2022/10/01 01:16:17;;;;;;;;;;;;;;;10.25;100.00;98716.05;104950;1273;69281;-73
2022/10/01 01:19:02;;;;;;;;;;;;;;;10.23;100.00;98719.56;104909;1272;74365;-73
2022/10/01 01:21:33;;;;;;;;;;;;;;;10.21;100.00;98721.66;104932;1273;61389;-74
2022/10/01 01:23:59;;;;;;;;;;;;;;;10.22;100.00;98725.72;104954;1273;61292;-73
2022/10/01 01:26:41;;;;;;;;;;;;;;;10.22;100.00;98725.20;104931;1273;61313;-73
2022/10/01 01:29:31;;;;;;;;;;;;;;;10.23;100.00;98721.23;104907;1273;68452;-73
2022/10/01 01:32:01;;;;;;;;;;;;;;;10.22;100.00;98719.70;104976;1272;73521;-74
2022/10/01 01:34:30;;;;;;;;;;;;;;;10.19;100.00;98717.56;104921;1273;61306;-74
2022/10/01 01:36:59;;;;;;;;;;;;;;;10.17;100.00;98716.86;104927;1272;62082;-74
2022/10/01 01:39:30;;;;;;;;;;;;;;;10.14;100.00;98721.85;104902;1272;76099;-72
2022/10/01 01:41:59;;;;;;;;;;;;;;;10.13;100.00;98720.34;104904;1273;69488;-72
2022/10/01 01:44:30;;;;;;;;;;;;;;;10.11;100.00;98715.96;104941;1272;73162;-74
2022/10/01 01:46:57;;;;;;;;;;;;;;;10.12;100.00;98715.36;104934;1273;61288;-73
2022/10/01 01:49:24;;;;;;;;;;;;;;;10.13;100.00;98722.40;104964;1273;61289;-73
2022/10/01 01:52:00;;;;;;;;;;;;;;;10.15;100.00;98720.88;104945;1272;76334;-73
2022/10/01 01:54:29;;;;;;;;;;;;;;;10.17;100.00;98728.55;104959;1273;70368;-73
2022/10/01 01:56:57;;;;;;;;;;;;;;;10.18;100.00;98727.73;104905;1273;74551;-72
2022/10/01 01:59:25;;;;;;;;;;;;;;;10.20;100.00;98731.91;104973;1273;61443;-74
2022/10/01 02:01:51;;;;;;;;;;;;;;;10.20;100.00;98734.55;105260;1272;61277;-73
2022/10/01 02:04:34;;;;;;;;;;;;;;;10.20;100.00;98735.59;104901;1272;61362;-72
2022/10/01 02:07:15;;;;;;;;;;;;;;;10.22;100.00;98740.45;104905;1273;69187;-71
2022/10/01 02:09:52;;;;;;;;;;;;;;;10.23;100.00;98741.21;104932;1273;74307;-74
2022/10/01 02:12:30;;;;;;;;;;;;;;;10.25;100.00;98746.63;104889;1272;61395;-76
2022/10/01 02:15:19;;;;;;;;;;;;;;;10.27;100.00;98749.14;104916;1273;61198;-74
2022/10/01 02:17:51;;;;;;;;;;;;;;;10.30;100.00;98747.40;104885;1273;73943;-74
2022/10/01 02:20:28;;;;;;;;;;;;;;;10.32;100.00;98745.63;104918;1273;69435;-75
2022/10/01 02:22:58;;;;;;;;;;;;;;;10.34;100.00;98743.38;104883;1273;74557;-73
2022/10/01 02:25:29;;;;;;;;;;;;;;;10.36;100.00;98740.95;104899;1272;61390;-73
2022/10/01 02:28:02;;;;;;;;;;;;;;;10.38;100.00;98742.75;104777;1272;61352;-73
2022/10/01 02:30:30;;;;;;;;;;;;;;;10.39;100.00;98743.01;104942;1273;75326;-73
2022/10/01 02:32:58;;;;;;;;;;;;;;;10.41;100.00;98741.11;104910;1273;69279;-73
2022/10/01 02:35:27;;;;;;;;;;;;;;;10.41;100.00;98738.42;104973;1272;73309;-74
2022/10/01 02:37:55;;;;;;;;;;;;;;;10.42;100.00;98736.97;104976;1273;61348;-74
2022/10/01 02:40:26;;;;;;;;;;;;;;;10.41;100.00;98737.34;104932;1273;61311;-73
2022/10/01 02:42:56;;;;;;;;;;;;;;;10.42;100.00;98739.27;104951;1272;74505;-73
2022/10/01 02:45:24;;;;;;;;;;;;;;;10.42;100.00;98739.98;104925;1273;70433;-73
2022/10/01 02:47:56;;;;;;;;;;;;;;;10.42;100.00;98741.02;104936;1272;74687;-73
2022/10/01 02:50:26;;;;;;;;;;;;;;;10.42;100.00;98742.46;104898;1272;61297;-73
2022/10/01 02:52:57;;;;;;;;;;;;;;;10.39;100.00;98744.29;105002;1273;61170;-74
2022/10/01 02:55:27;;;;;;;;;;;;;;;10.38;100.00;98746.66;105031;1272;75808;-73
2022/10/01 02:57:54;;;;;;;;;;;;;;;10.37;100.00;98749.16;104932;1273;68398;-73
2022/10/01 03:00:21;;;;;;;;;;;;;;;10.35;100.00;98750.59;104932;1272;73131;-74
2022/10/01 03:02:48;;;;;;;;;;;;;;;10.33;100.00;98746.23;104932;1273;61307;-73
2022/10/01 03:05:15;;;;;;;;;;;;;;;10.34;100.00;98745.34;104979;1273;61336;-74
2022/10/01 03:07:42;;;;;;;;;;;;;;;10.32;100.00;98748.42;104897;1273;75327;-74
2022/10/01 03:10:09;;;;;;;;;;;;;;;10.31;100.00;98745.02;104950;1273;70064;-74
2022/10/01 03:12:36;;;;;;;;;;;;;;;10.30;100.00;98740.59;104899;1272;74490;-71
2022/10/01 03:15:03;;;;;;;;;;;;;;;10.30;100.00;98739.58;104882;1273;61116;-73
2022/10/01 03:17:29;;;;;;;;;;;;;;;10.29;100.00;98739.08;104967;1273;61204;-73
2022/10/01 03:19:56;;;;;;;;;;;;;;;10.28;100.00;98734.67;104913;1272;61241;-73
2022/10/01 03:22:22;;;;;;;;;;;;;;;10.27;100.00;98733.17;104914;1273;61249;-74
2022/10/01 03:24:50;;;;;;;;;;;;;;;10.26;100.00;98733.77;104904;1272;73450;-73
2022/10/01 03:27:17;;;;;;;;;;;;;;;10.26;100.00;98736.97;105077;1273;61402;-74
2022/10/01 03:29:43;;;;;;;;;;;;;;;10.26;100.00;98729.67;104880;1272;61810;-73
2022/10/01 03:32:10;;;;;;;;;;;;;;;10.27;100.00;98730.52;104923;1273;75158;-72
2022/10/01 03:34:36;;;;;;;;;;;;;;;10.29;100.00;98736.98;104646;1272;61393;-71
2022/10/01 03:37:03;;;;;;;;;;;;;;;10.28;100.00;98733.98;104655;1273;61378;-73
2022/10/01 03:39:30;;;;;;;;;;;;;;;10.28;100.00;98728.70;104760;1273;61335;-75
2022/10/01 03:41:56;;;;;;;;;;;;;;;10.28;100.00;98730.46;104987;1272;61843;-72
2022/10/01 03:44:23;;;;;;;;;;;;;;;10.29;100.00;98733.21;104911;1272;61248;-73
2022/10/01 03:46:49;;;;;;;;;;;;;;;10.30;100.00;98731.23;104915;1272;61382;-73
2022/10/01 03:49:15;;;;;;;;;;;;;;;10.30;100.00;98723.92;104914;1273;61381;-73
2022/10/01 03:51:44;;;;;;;;;;;;;;;10.31;100.00;98713.58;104912;1272;61387;-72
2022/10/01 03:54:11;;;;;;;;;;;;;;;10.30;100.00;98712.52;104998;1273;61325;-72
2022/10/01 03:56:41;;;;;;;;;;;;;;;10.30;100.00;98714.02;104937;1273;75079;-73
2022/10/01 03:59:09;;;;;;;;;;;;;;;10.29;100.00;98709.07;104953;1273;69244;-72
2022/10/01 04:01:37;;;;;;;;;;;;;;;10.29;100.00;98710.88;104954;1273;73146;-74
2022/10/01 04:04:04;;;;;;;;;;;;;;;10.29;100.00;98712.48;104917;1272;61380;-72
2022/10/01 04:06:31;;;;;;;;;;;;;;;10.27;100.00;98710.95;105003;1273;61472;-74
2022/10/01 04:08:57;;;;;;;;;;;;;;;10.26;100.00;98712.06;104913;1272;75454;-73
2022/10/01 04:11:24;;;;;;;;;;;;;;;10.25;100.00;98708.59;104918;1273;61408;-73
2022/10/01 04:13:51;;;;;;;;;;;;;;;10.25;100.00;98702.03;104897;1272;73226;-73
2022/10/01 04:16:17;;;;;;;;;;;;;;;10.24;100.00;98701.06;104924;1272;61386;-73
2022/10/01 04:18:44;;;;;;;;;;;;;;;10.25;100.00;98701.02;104971;1273;61182;-72
2022/10/01 04:21:11;;;;;;;;;;;;;;;10.24;100.00;98702.46;104950;1273;61295;-73
2022/10/01 04:23:38;;;;;;;;;;;;;;;10.24;100.00;98699.80;105017;1273;70268;-72
2022/10/01 04:26:04;;;;;;;;;;;;;;;10.24;100.00;98701.25;105002;1273;72467;-72
2022/10/01 04:28:31;;;;;;;;;;;;;;;10.24;100.00;98704.44;104901;1272;61245;-72
2022/10/01 04:33:43;;;;;;;;;;;;;;;10.24;100.00;98700.15;104901;1273;75328;-73
2022/10/01 04:36:10;;;;;;;;;;;;;;;10.25;100.00;98697.28;104941;1272;70372;-73
2022/10/01 04:38:36;;;;;;;;;;;;;;;10.25;100.00;98694.27;104925;1273;73128;-73
2022/10/01 04:41:02;;;;;;;;;;;;;;;10.25;100.00;98690.34;104973;1273;61383;-75
2022/10/01 04:43:29;;;;;;;;;;;;;;;10.26;100.00;98686.36;104961;1273;61266;-74
2022/10/01 04:45:56;;;;;;;;;;;;;;;10.27;100.00;98687.73;104923;1272;61357;-73
2022/10/01 04:48:23;;;;;;;;;;;;;;;10.27;100.00;98688.98;104943;1273;61383;-74
2022/10/01 04:50:49;;;;;;;;;;;;;;;10.27;100.00;98680.44;104981;1273;73166;-73
2022/10/01 04:53:16;;;;;;;;;;;;;;;10.29;100.00;98674.11;104949;1273;61430;-74
2022/10/01 04:55:42;;;;;;;;;;;;;;;10.31;100.00;98677.17;104919;1272;61253;-73
2022/10/01 04:58:09;;;;;;;;;;;;;;;10.33;100.00;98677.89;104946;1272;61315;-73
2022/10/01 05:00:35;;;;;;;;;;;;;;;10.36;100.00;98678.60;104983;1273;70429;-74
2022/10/01 05:03:02;;;;;;;;;;;;;;;10.38;100.00;98678.81;104985;1273;61274;-74
2022/10/01 05:05:31;;;;;;;;;;;;;;;10.40;100.00;98685.77;104917;1273;61286;-73
2022/10/01 05:07:58;;;;;;;;;;;;;;;10.43;100.00;98689.48;104981;1273;61561;-74
2022/10/01 05:10:25;;;;;;;;;;;;;;;10.45;100.00;98689.31;104939;1273;73826;-71
2022/10/01 05:12:51;;;;;;;;;;;;;;;10.48;100.00;98693.86;104947;1273;70841;-72
2022/10/01 05:15:18;;;;;;;;;;;;;;;10.51;100.00;98689.75;104920;1273;61279;-73
2022/10/01 05:17:45;;;;;;;;;;;;;;;10.54;100.00;98682.64;104951;1273;61316;-74
2022/10/01 05:20:17;;;;;;;;;;;;;;;10.56;100.00;98683.88;104978;1273;61312;-72
2022/10/01 05:22:44;;;;;;;;;;;;;;;10.59;100.00;98684.61;104934;1273;75964;-73
2022/10/01 05:25:10;;;;;;;;;;;;;;;10.60;100.00;98681.64;104939;1273;70385;-73
2022/10/01 05:27:39;;;;;;;;;;;;;;;10.61;100.00;98684.77;104983;1273;61335;-72
2022/10/01 05:30:08;;;;;;;;;;;;;;;10.63;100.00;98687.48;104981;1273;61414;-73
2022/10/01 05:32:34;;;;;;;;;;;;;;;10.64;100.00;98686.84;105091;1272;61301;-73
2022/10/01 05:35:02;;;;;;;;;;;;;;;10.67;100.00;98688.27;104989;1273;75217;-73
2022/10/01 05:37:28;;;;;;;;;;;;;;;10.70;100.00;98687.30;104995;1273;70210;-74
2022/10/01 05:39:55;;;;;;;;;;;;;;;10.73;100.00;98690.83;104959;1273;61293;-72
2022/10/01 05:42:21;;;;;;;;;;;;;;;10.78;100.00;98687.69;104978;1273;61250;-75
2022/10/01 05:44:48;;;;;;;;;;;;;;;10.83;100.00;98687.46;105015;1272;61268;-72
2022/10/01 05:47:15;;;;;;;;;;;;;;;10.87;100.00;98687.66;104643;1273;75198;-73
2022/10/01 05:49:43;;;;;;;;;;;;;;;10.92;100.00;98688.02;104594;1273;69334;-73
2022/10/01 05:52:10;;;;;;;;;;;;;;;10.97;100.00;98683.27;104939;1273;73205;-73
2022/10/01 05:54:36;;;;;;;;;;;;;;;11.02;100.00;98685.33;104952;1273;61359;-75
2022/10/01 05:57:04;;;;;;;;;;;;;;;11.09;100.00;98682.38;104958;1273;61276;-73
2022/10/01 05:59:30;;;;;;;;;;;;;;;11.17;100.00;98682.80;104934;1273;75941;-73
2022/10/01 06:01:56;;;;;;;;;;;;;;;11.27;100.00;98676.73;104983;1273;61358;-73
2022/10/01 06:04:23;;;;;;;;;;;;;;;11.38;100.00;98676.42;104998;1273;61274;-74
2022/10/01 06:06:50;;;;;;;;;;;;;;;11.48;100.00;98669.65;105029;1273;61379;-75
2022/10/01 06:09:16;;;;;;;;;;;;;;;11.54;100.00;98669.36;104963;1273;61269;-73
2022/10/01 06:11:43;;;;;;;;;;;;;;;11.56;100.00;98668.81;104883;1273;61349;-74
2022/10/01 06:14:09;;;;;;;;;;;;;;;11.57;100.00;98665.38;104975;1273;61297;-73
2022/10/01 06:16:36;;;;;;;;;;;;;;;11.58;100.00;98669.23;104942;1273;61369;-71
2022/10/01 06:19:02;;;;;;;;;;;;;;;11.59;100.00;98672.52;104952;1273;61277;-74
2022/10/01 06:21:30;;;;;;;;;;;;;;;11.61;100.00;98676.27;104946;1273;61282;-73
2022/10/01 06:23:56;;;;;;;;;;;;;;;11.66;100.00;98676.48;104942;1273;76383;-74
2022/10/01 06:26:23;;;;;;;;;;;;;;;11.70;100.00;98672.59;104956;1273;69345;-74
2022/10/01 06:28:50;;;;;;;;;;;;;;;11.72;100.00;98669.96;104910;1273;72161;-74
2022/10/01 06:31:18;;;;;;;;;;;;;;;11.77;100.00;98672.20;104995;1273;61720;-74
2022/10/01 06:33:46;;;;;;;;;;;;;;;11.86;100.00;98672.66;104928;1273;168066;-74
2022/10/01 06:36:13;;;;;;;;;;;;;;;11.93;100.00;98667.45;104910;1273;74334;-74
2022/10/01 06:38:39;;;;;;;;;;;;;;;12.02;100.00;98667.29;104941;1273;68308;-74
2022/10/01 06:41:06;;;;;;;;;;;;;;;12.11;100.00;98670.91;104937;1273;61410;-73
2022/10/01 06:43:32;;;;;;;;;;;;;;;12.18;100.00;98668.39;104918;1272;61312;-74
2022/10/01 06:46:03;;;;;;;;;;;;;;;12.25;100.00;98667.67;104993;1273;61233;-74
2022/10/01 06:48:30;;;;;;;;;;;;;;;12.31;100.00;98666.64;104982;1274;75254;-72
2022/10/01 06:50:57;;;;;;;;;;;;;;;12.38;100.00;98666.62;105088;1273;69461;-75
2022/10/01 06:53:26;;;;;;;;;;;;;;;12.45;100.00;98660.53;104958;1273;73312;-72
2022/10/01 06:55:53;;;;;;;;;;;;;;;12.50;100.00;98665.80;104936;1273;61318;-73
2022/10/01 06:58:20;;;;;;;;;;;;;;;12.58;100.00;98667.89;104970;1273;61175;-74
2022/10/01 07:00:47;;;;;;;;;;;;;;;12.64;100.00;98662.59;104957;1273;75219;-74
2022/10/01 07:03:15;;;;;;;;;;;;;;;12.70;100.00;98660.85;104997;1273;69494;-74
2022/10/01 07:05:41;;;;;;;;;;;;;;;12.75;100.00;98657.00;104933;1273;73372;-74
2022/10/01 07:08:08;;;;;;;;;;;;;;;12.80;100.00;98655.21;104965;1273;61274;-74
2022/10/01 07:10:36;;;;;;;;;;;;;;;12.84;100.00;98654.92;104979;1272;61474;-74
2022/10/01 07:13:11;;;;;;;;;;;;;;;12.91;100.00;98654.67;104986;1273;75501;-76
2022/10/01 07:15:38;;;;;;;;;;;;;;;12.99;100.00;98651.20;104980;1273;69155;-73
2022/10/01 07:18:05;;;;;;;;;;;;;;;13.06;100.00;98646.70;104922;1273;72412;-73
2022/10/01 07:20:34;;;;;;;;;;;;;;;13.09;100.00;98645.30;104716;1273;61343;-74
2022/10/01 07:23:01;;;;;;;;;;;;;;;13.10;100.00;98648.80;105017;1272;61348;-73
2022/10/01 07:25:28;;;;;;;;;;;;;;;13.10;100.00;98647.92;104946;1273;75452;-73
2022/10/01 07:27:56;;;;;;;;;;;;;;;13.08;100.00;98646.29;104937;1272;69708;-73
2022/10/01 07:30:23;;;;;;;;;;;;;;;13.10;100.00;98646.12;104954;1273;74832;-74
2022/10/01 07:32:50;;;;;;;;;;;;;;;13.11;100.00;98641.80;104940;1273;61307;-73
2022/10/01 07:35:18;;;;;;;;;;;;;;;13.13;100.00;98637.70;104961;1273;61297;-73
2022/10/01 07:37:49;;;;;;;;;;;;;;;13.21;100.00;98640.41;105188;1273;74086;-73
2022/10/01 07:40:17;;;;;;;;;;;;;;;13.27;100.00;98638.69;104929;1273;69240;-73
2022/10/01 07:42:54;;;;;;;;;;;;;;;13.36;100.00;98637.73;104936;1272;73455;-73
2022/10/01 07:45:22;;;;;;;;;;;;;;;13.45;100.00;98635.46;104944;1273;61291;-73
2022/10/01 07:47:56;;;;;;;;;;;;;;;13.49;100.00;98632.23;105004;1273;61186;-72
2022/10/01 07:50:22;;;;;;;;;;;;;;;13.57;100.00;98631.54;104736;1273;74839;-74
2022/10/01 07:52:50;;;;;;;;;;;;;;;13.63;100.00;98633.15;104969;1273;69872;-73
2022/10/01 07:55:17;;;;;;;;;;;;;;;13.70;100.00;98637.77;104981;1273;73961;-73
2022/10/01 07:57:48;;;;;;;;;;;;;;;13.74;100.00;98636.13;105065;1272;61320;-72
2022/10/01 08:00:14;;;;;;;;;;;;;;;13.75;100.00;98628.36;104840;1273;61611;-72
2022/10/01 08:02:45;;;;;;;;;;;;;;;13.79;100.00;98628.23;104947;1273;61269;-73
2022/10/01 08:05:17;;;;;;;;;;;;;;;13.86;100.00;98627.63;104929;1273;69756;-75
2022/10/01 08:07:45;;;;;;;;;;;;;;;13.94;100.00;98631.71;104976;1273;73632;-74
2022/10/01 08:10:12;;;;;;;;;;;;;;;14.04;100.00;98626.77;104961;1273;61392;-73
2022/10/01 08:12:41;;;;;;;;;;;;;;;14.12;100.00;98626.63;104896;1273;61908;-72
2022/10/01 08:15:12;;;;;;;;;;;;;;;14.19;100.00;98624.76;104968;1272;76324;-73
2022/10/01 08:17:39;;;;;;;;;;;;;;;14.25;100.00;98624.95;104960;1273;70201;-73
2022/10/01 08:20:07;;;;;;;;;;;;;;;14.34;100.00;98620.40;104927;1273;73590;-72
2022/10/01 08:22:35;;;;;;;;;;;;;;;14.40;100.00;98618.26;105063;1273;61355;-73
2022/10/01 08:25:02;;;;;;;;;;;;;;;14.40;100.00;98620.54;104971;1273;61166;-73
2022/10/01 08:27:29;;;;;;;;;;;;;;;14.42;100.00;98622.38;105058;1273;75286;-73
2022/10/01 08:29:55;;;;;;;;;;;;;;;14.45;100.00;98621.17;105006;1273;69206;-71
2022/10/01 08:32:24;;;;;;;;;;;;;;;14.44;100.00;98622.75;104950;1273;74345;-74
2022/10/01 08:34:51;;;;;;;;;;;;;;;14.39;100.00;98622.25;104944;1273;61312;-73
2022/10/01 08:37:18;;;;;;;;;;;;;;;14.37;100.00;98615.27;104980;1273;62312;-73
2022/10/01 08:39:45;;;;;;;;;;;;;;;14.35;100.00;98615.45;104792;1273;61374;-73
2022/10/01 08:42:32;;;;;;;;;;;;;;;14.36;100.00;98613.61;104961;1273;70340;-70
2022/10/01 08:45:02;;;;;;;;;;;;;;;14.38;100.00;98611.49;104618;1273;74621;-73
2022/10/01 08:47:33;;;;;;;;;;;;;;;14.35;100.00;98612.59;104949;1273;61340;-76
2022/10/01 08:50:15;;;;;;;;;;;;;;;14.35;100.00;98605.62;104963;1274;61381;-73
2022/10/01 08:52:49;;;;;;;;;;;;;;;14.38;100.00;98601.79;104938;1273;76371;-73
2022/10/01 08:55:21;;;;;;;;;;;;;;;14.45;100.00;98594.95;104917;1273;69232;-74
2022/10/01 08:57:50;;;;;;;;;;;;;;;14.55;100.00;98586.38;105213;1274;74253;-72
2022/10/01 09:00:18;;;;;;;;;;;;;;;14.69;100.00;98582.24;104911;1273;61355;-74
2022/10/01 09:02:46;;;;;;;;;;;;;;;14.89;100.00;98580.78;104960;1273;61260;-73
2022/10/01 09:05:33;;;;;;;;;;;;;;;15.16;100.00;98577.62;104945;1273;75370;-73
2022/10/01 09:08:03;;;;;;;;;;;;;;;15.33;100.00;98568.11;105074;1273;68897;-72
2022/10/01 09:10:29;;;;;;;;;;;;;;;15.45;100.00;98567.58;104908;1274;74820;-73
2022/10/01 09:13:14;;;;;;;;;;;;;;;15.53;100.00;98573.79;104936;1274;61310;-72
2022/10/01 09:15:57;;;;;;;;;;;;;;;15.55;100.00;98575.05;104892;1273;61251;-73
2022/10/01 09:18:43;;;;;;;;;;;;;;;15.58;100.00;98577.79;104970;1274;76394;-72
2022/10/01 09:21:19;;;;;;;;;;;;;;;15.62;100.00;98578.17;104990;1274;70460;-72
2022/10/01 09:24:13;;;;;;;;;;;;;;;15.66;100.00;98573.33;104906;1273;74551;-74
2022/10/01 09:26:43;;;;;;;;;;;;;;;15.71;100.00;98569.94;104780;1277;61412;-73
2022/10/01 09:29:14;;;;;;;;;;;;;;;15.70;100.00;98574.14;104795;1277;61163;-73
2022/10/01 09:31:46;;;;;;;;;;;;;;;15.65;100.00;98577.88;104775;1278;75978;-75
2022/10/01 09:34:14;;;;;;;;;;;;;;;15.63;100.00;98577.52;104602;1280;68717;-72
2022/10/01 09:37:02;;;;;;;;;;;;;;;15.64;100.00;98581.39;104636;1281;74440;-71
2022/10/01 09:39:33;;;;;;;;;;;;;;;15.58;100.00;98581.92;104709;1277;61457;-73
2022/10/01 09:42:00;;;;;;;;;;;;;;;15.51;100.00;98577.01;104758;1277;61281;-73
2022/10/01 09:44:31;;;;;;;;;;;;;;;15.46;100.00;98577.52;104821;1278;75409;-74
2022/10/01 09:46:58;;;;;;;;;;;;;;;15.40;100.00;98574.88;104847;1278;69408;-73
2022/10/01 09:49:28;;;;;;;;;;;;;;;15.32;100.00;98576.65;104806;1277;74467;-73
2022/10/01 09:51:57;;;;;;;;;;;;;;;15.23;100.00;98573.74;104701;1277;61354;-73
2022/10/01 09:54:32;;;;;;;;;;;;;;;15.18;100.00;98580.66;104773;1277;61368;-73
2022/10/01 09:57:12;;;;;;;;;;;;;;;15.17;100.00;98578.27;104706;1278;75647;-74
2022/10/01 09:59:49;;;;;;;;;;;;;;;15.16;100.00;98571.52;104736;1277;69267;-73
2022/10/01 10:02:22;;;;;;;;;;;;;;;15.19;100.00;98570.91;104772;1277;74766;-73
2022/10/01 10:05:02;;;;;;;;;;;;;;;15.21;100.00;98566.98;104864;1274;61435;-73
2022/10/01 10:07:31;;;;;;;;;;;;;;;15.22;100.00;98564.86;104916;1273;61546;-72
2022/10/01 10:10:07;;;;;;;;;;;;;;;15.18;100.00;98562.95;105004;1273;75883;-73
2022/10/01 10:12:33;;;;;;;;;;;;;;;15.12;100.00;98564.68;104980;1273;68819;-73
2022/10/01 10:15:06;;;;;;;;;;;;;;;15.08;100.00;98557.25;104907;1274;72420;-73
2022/10/01 10:17:36;;;;;;;;;;;;;;;15.10;100.00;98554.02;104946;1273;61314;-74
2022/10/01 10:20:09;;;;;;;;;;;;;;;15.15;100.00;98544.41;104956;1273;61192;-73
2022/10/01 10:22:37;;;;;;;;;;;;;;;15.28;100.00;98541.43;104991;1274;74563;-73
2022/10/01 10:25:18;;;;;;;;;;;;;;;15.44;100.00;98537.56;104973;1274;70460;-74
2022/10/01 10:27:54;;;;;;;;;;;;;;;15.64;100.00;98529.06;104821;1277;73430;-73
2022/10/01 10:30:23;;;;;;;;;;;;;;;15.81;100.00;98527.08;104943;1274;61286;-73
2022/10/01 10:32:50;;;;;;;;;;;;;;;15.86;100.00;98523.77;104988;1274;61339;-73
2022/10/01 10:35:20;;;;;;;;;;;;;;;15.85;100.00;98523.86;104951;1273;76471;-73
2022/10/01 10:37:52;;;;;;;;;;;;;;;15.84;100.00;98516.40;104939;1273;70465;-73
2022/10/01 10:40:24;;;;;;;;;;;;;;;15.87;100.00;98513.28;105056;1273;74159;-73
2022/10/01 10:42:51;;;;;;;;;;;;;;;15.90;100.00;98508.14;104968;1274;61289;-73
2022/10/01 10:45:28;;;;;;;;;;;;;;;15.93;100.00;98506.44;104960;1274;61304;-74
2022/10/01 10:47:55;;;;;;;;;;;;;;;15.96;100.00;98498.80;104976;1273;75911;-74
2022/10/01 10:50:23;;;;;;;;;;;;;;;16.03;100.00;98493.76;105000;1274;69633;-74
2022/10/01 10:52:50;;;;;;;;;;;;;;;16.07;100.00;98488.76;105054;1273;73124;-74
2022/10/01 10:55:20;;;;;;;;;;;;;;;16.04;100.00;98486.41;105002;1273;61236;-74
2022/10/01 10:57:46;;;;;;;;;;;;;;;15.99;100.00;98471.95;105135;1273;61236;-72
2022/10/01 11:00:21;;;;;;;;;;;;;;;16.01;100.00;98462.40;104959;1274;75358;-74
2022/10/01 11:02:54;;;;;;;;;;;;;;;16.04;100.00;98458.60;105079;1273;70015;-73
2022/10/01 11:05:28;;;;;;;;;;;;;;;16.06;100.00;98455.89;104930;1273;74267;-73
2022/10/01 11:07:57;;;;;;;;;;;;;;;16.06;100.00;98448.54;105084;1273;61322;-73
2022/10/01 11:10:31;;;;;;;;;;;;;;;15.99;100.00;98450.41;104968;1274;61234;-73
2022/10/01 11:13:23;;;;;;;;;;;;;;;15.93;100.00;98444.98;104989;1274;75502;-72
2022/10/01 11:15:52;;;;;;;;;;;;;;;15.85;100.00;98441.77;104610;1277;70674;-73
2022/10/01 11:18:37;;;;;;;;;;;;;;;15.79;100.00;98439.68;104527;1280;74394;-73
2022/10/01 11:21:10;;;;;;;;;;;;;;;15.74;100.00;98433.91;104479;1279;61366;-74
2022/10/01 11:23:37;;;;;;;;;;;;;;;15.73;100.00;98433.47;104491;1280;61269;-73
2022/10/01 11:26:08;;;;;;;;;;;;;;;15.71;100.00;98426.10;104519;1280;75398;-73
2022/10/01 11:28:47;;;;;;;;;;;;;;;15.72;100.00;98424.61;104544;1280;69163;-73
2022/10/01 11:31:30;;;;;;;;;;;;;;;15.72;100.00;98419.02;104383;1281;71397;-74
2022/10/01 11:33:59;;;;;;;;;;;;;;;15.70;100.00;98420.01;104483;1280;61304;-73
2022/10/01 11:36:48;;;;;;;;;;;;;;;15.66;100.00;98415.48;104539;1279;61432;-74
2022/10/01 11:39:17;;;;;;;;;;;;;;;15.62;100.00;98412.88;103991;1285;75718;-73
2022/10/01 11:41:49;;;;;;;;;;;;;;;15.62;100.00;98410.17;104062;1285;69325;-73
2022/10/01 11:44:27;;;;;;;;;;;;;;;15.66;100.00;98405.15;103946;1287;74689;-74
2022/10/01 11:46:57;;;;;;;;;;;;;;;15.74;100.00;98399.66;103931;1286;61416;-72
2022/10/01 11:49:42;;;;;;;;;;;;;;;15.86;100.00;98392.41;103983;1285;61273;-74
2022/10/01 11:52:16;;;;;;;;;;;;;;;15.99;100.00;98386.00;103886;1287;75789;-71
2022/10/01 11:54:55;;;;;;;;;;;;;;;15.96;100.00;98393.05;104478;1279;67922;-72
2022/10/01 12:00:09;;;;;;;;;;;;;;;16.04;100.00;98387.50;104541;1280;61487;-73
2022/10/01 12:02:46;;;;;;;;;;;;;;;16.10;100.00;98382.77;104604;1277;61800;-73
2022/10/01 12:05:21;;;;;;;;;;;;;;;15.99;100.00;98381.86;104565;1277;76193;-73
2022/10/01 12:07:48;;;;;;;;;;;;;;;15.84;100.00;98376.20;104659;1277;69718;-75
2022/10/01 12:10:17;;;;;;;;;;;;;;;15.75;100.00;98374.35;104626;1277;61341;-74
2022/10/01 12:13:06;;;;;;;;;;;;;;;15.72;100.00;98375.22;104627;1277;61453;-74
2022/10/01 12:15:36;;;;;;;;;;;;;;;15.71;100.00;98368.49;103973;1284;61411;-72
2022/10/01 12:18:05;;;;;;;;;;;;;;;15.71;100.00;98367.90;104464;1281;76432;-73
2022/10/01 12:20:38;;;;;;;;;;;;;;;15.70;100.00;98363.04;104557;1281;69312;-72
2022/10/01 12:23:06;;;;;;;;;;;;;;;15.66;100.00;98361.77;104453;1281;74197;-73
2022/10/01 12:25:39;;;;;;;;;;;;;;;15.65;100.00;98355.08;104441;1280;61405;-73
2022/10/01 12:30:01;;;;;;;24.30;21.80;;;;;;;15.77;100.00;98349.80;101639;1309;601273;-72
2022/10/01 12:33:00;;;;;;;25.50;22.60;;;;;;;15.84;100.00;98346.95;104249;1284;60127;-72
2022/10/01 12:35:48;;;;;;;24.00;20.70;;;;;;;15.82;100.00;98344.11;104349;1284;60912;-73
2022/10/01 12:38:56;;;;;;;25.40;21.90;;;;;;;15.80;100.00;98341.57;104364;1284;73828;-73
2022/10/01 12:41:26;;;;;;;24.70;22.00;;;;;;;15.78;100.00;98340.77;103747;1290;69424;-74
2022/10/01 12:44:31;;;;;;;24.10;21.50;;;;;;;15.74;100.00;98340.65;103800;1287;165218;-72
2022/10/01 12:47:16;;;;;;;25.90;22.40;;;;;;;15.72;100.00;98337.23;104700;1277;61602;-71